createdAt,value
2022-10-06T00:00:15.375Z,79.08
2022-10-06T00:01:18.319Z,78.84
2022-10-06T00:02:19.940Z,79.56
2022-10-06T00:03:23.095Z,79.99
2022-10-06T00:04:24.906Z,79.25
2022-10-06T00:05:26.715Z,79.71
2022-10-06T00:06:28.160Z,79.46
2022-10-06T00:07:29.598Z,79.24
2022-10-06T00:08:32.637Z,78.83
2022-10-06T00:09:34.458Z,79.05
2022-10-06T00:10:35.910Z,79.26
2022-10-06T00:11:37.687Z,79.06
2022-10-06T00:12:46.118Z,78.93
2022-10-06T00:13:47.619Z,78.96
2022-10-06T00:14:49.371Z,78.97
2022-10-06T00:15:51.038Z,78.61
2022-10-06T00:16:52.564Z,78.96
2022-10-06T00:17:55.059Z,78.42
2022-10-06T00:18:57.936Z,78.34
2022-10-06T00:19:59.290Z,78.28
2022-10-06T00:21:01.461Z,78.17
2022-10-06T00:22:02.953Z,78.78
2022-10-06T00:23:04.529Z,79.05
2022-10-06T00:24:06.511Z,79.64
2022-10-06T00:25:10.474Z,79.32
2022-10-06T00:26:16.718Z,79.02
2022-10-06T00:27:18.597Z,79.42
2022-10-06T00:28:20.269Z,79.07
2022-10-06T00:29:22.170Z,78.97
2022-10-06T00:30:26.137Z,78.65
2022-10-06T00:31:27.652Z,78.91
2022-10-06T00:32:29.145Z,78.72
2022-10-06T00:33:30.589Z,78.77
2022-10-06T00:34:32.397Z,78.38
2022-10-06T00:35:35.112Z,78.75
2022-10-06T00:36:37.298Z,78.73
2022-10-06T00:37:38.787Z,78.72
2022-10-06T00:38:40.352Z,78.76
2022-10-06T00:39:42.235Z,78.82
2022-10-06T00:40:49.774Z,79.02
2022-10-06T00:41:51.226Z,79.13
2022-10-06T00:43:01.061Z,79.11
2022-10-06T00:44:02.872Z,78.97
2022-10-06T00:45:06.258Z,78.72
2022-10-06T00:46:09.946Z,78.83
2022-10-06T00:47:11.535Z,79.88
2022-10-06T00:48:22.048Z,79.71
2022-10-06T00:49:36.019Z,79.35
2022-10-06T00:50:38.164Z,78.80
2022-10-06T00:51:47.693Z,78.75
2022-10-06T00:52:50.094Z,78.61
2022-10-06T00:53:51.979Z,78.91
2022-10-06T00:54:53.699Z,79.13
2022-10-06T00:55:55.208Z,79.29
2022-10-06T00:56:57.755Z,79.46
2022-10-06T00:58:00.109Z,79.37
2022-10-06T00:59:01.946Z,78.95
2022-10-06T01:00:08.059Z,78.85
2022-10-06T01:01:11.881Z,78.98
2022-10-06T01:02:16.038Z,79.00
2022-10-06T01:03:21.881Z,79.06
2022-10-06T01:04:24.855Z,78.90
2022-10-06T01:05:28.447Z,79.56
2022-10-06T01:06:29.888Z,79.30
2022-10-06T01:07:32.282Z,79.62
2022-10-06T01:08:34.334Z,79.57
2022-10-06T01:09:36.985Z,79.70
2022-10-06T01:10:38.516Z,79.36
2022-10-06T01:11:40.273Z,79.40
2022-10-06T01:12:41.791Z,79.44
2022-10-06T01:13:45.297Z,79.69
2022-10-06T01:14:47.789Z,79.63
2022-10-06T01:16:03.481Z,79.61
2022-10-06T01:17:11.246Z,79.29
2022-10-06T01:18:16.173Z,79.62
2022-10-06T01:19:36.504Z,79.06
2022-10-06T01:20:39.054Z,79.21
2022-10-06T01:21:46.439Z,79.56
2022-10-06T01:22:51.379Z,79.22
2022-10-06T01:23:53.604Z,79.43
2022-10-06T01:24:55.880Z,79.40
2022-10-06T01:25:59.118Z,78.92
2022-10-06T01:27:01.359Z,78.97
2022-10-06T01:28:04.942Z,78.41
2022-10-06T01:29:06.872Z,78.45
2022-10-06T01:30:11.105Z,78.58
2022-10-06T01:31:13.184Z,77.97
2022-10-06T01:32:14.676Z,78.56
2022-10-06T01:33:16.480Z,77.83
2022-10-06T01:34:18.305Z,77.63
2022-10-06T01:35:20.441Z,77.28
2022-10-06T01:36:21.994Z,77.66
2022-10-06T01:37:23.401Z,77.24
2022-10-06T01:38:24.907Z,76.51
2022-10-06T01:39:26.348Z,76.50
2022-10-06T01:40:29.322Z,76.90
2022-10-06T01:41:33.272Z,76.64
2022-10-06T01:42:35.843Z,76.28
2022-10-06T01:43:37.303Z,76.19
2022-10-06T01:44:39.190Z,76.29
2022-10-06T01:45:40.628Z,76.05
2022-10-06T01:46:42.159Z,76.10
2022-10-06T01:47:43.716Z,76.44
2022-10-06T01:48:45.226Z,76.50
2022-10-06T01:49:47.287Z,76.32
2022-10-06T01:50:48.836Z,76.35
2022-10-06T01:51:50.442Z,76.75
2022-10-06T01:52:51.956Z,77.13
2022-10-06T01:53:53.404Z,76.73
2022-10-06T01:54:55.307Z,77.11
2022-10-06T01:56:00.219Z,77.03
2022-10-06T01:57:01.847Z,77.21
2022-10-06T01:58:03.488Z,77.10
2022-10-06T01:59:05.471Z,76.92
2022-10-06T02:00:08.105Z,77.03
2022-10-06T02:01:10.341Z,77.26
2022-10-06T02:02:11.887Z,77.70
2022-10-06T02:03:13.407Z,77.18
2022-10-06T02:04:15.250Z,77.45
2022-10-06T02:05:16.901Z,77.09
2022-10-06T02:06:18.449Z,77.32
2022-10-06T02:07:19.994Z,77.07
2022-10-06T02:08:21.451Z,77.41
2022-10-06T02:09:23.761Z,77.56
2022-10-06T02:10:25.251Z,77.16
2022-10-06T02:11:27.225Z,77.11
2022-10-06T02:12:31.698Z,77.33
2022-10-06T02:13:33.816Z,77.19
2022-10-06T02:14:35.595Z,77.27
2022-10-06T02:15:37.058Z,77.31
2022-10-06T02:16:39.164Z,77.08
2022-10-06T02:17:40.603Z,77.29
2022-10-06T02:18:42.534Z,77.37
2022-10-06T02:19:44.036Z,77.64
2022-10-06T02:20:45.484Z,77.40
2022-10-06T02:21:46.980Z,77.65
2022-10-06T02:22:48.607Z,77.41
2022-10-06T02:23:50.788Z,77.70
2022-10-06T02:24:52.239Z,77.47
2022-10-06T02:26:05.020Z,77.37
2022-10-06T02:27:06.953Z,77.46
2022-10-06T02:28:08.508Z,77.42
2022-10-06T02:29:10.356Z,78.30
2022-10-06T02:30:14.442Z,78.01
2022-10-06T02:31:17.082Z,77.85
2022-10-06T02:32:18.596Z,77.82
2022-10-06T02:33:20.100Z,78.46
2022-10-06T02:34:21.907Z,78.41
2022-10-06T02:35:23.418Z,78.50
2022-10-06T02:36:24.927Z,79.66
2022-10-06T02:37:26.366Z,79.76
2022-10-06T02:38:28.984Z,79.81
2022-10-06T02:39:31.062Z,79.67
2022-10-06T02:40:32.773Z,79.67
2022-10-06T02:41:34.314Z,79.79
2022-10-06T02:42:37.568Z,79.91
2022-10-06T02:43:39.506Z,79.67
2022-10-06T02:44:41.414Z,79.80
2022-10-06T02:45:43.241Z,79.84
2022-10-06T02:46:44.866Z,79.56
2022-10-06T02:47:46.545Z,79.30
2022-10-06T02:48:48.332Z,79.72
2022-10-06T02:50:02.690Z,79.39
2022-10-06T02:51:09.700Z,78.98
2022-10-06T02:52:11.156Z,79.03
2022-10-06T02:53:13.242Z,78.96
2022-10-06T02:54:15.769Z,79.16
2022-10-06T02:55:17.308Z,78.66
2022-10-06T02:56:24.346Z,78.59
2022-10-06T02:57:26.491Z,78.10
2022-10-06T02:58:32.499Z,78.38
2022-10-06T02:59:34.127Z,78.12
2022-10-06T03:00:35.569Z,77.94
2022-10-06T03:01:37.200Z,77.83
2022-10-06T03:02:38.787Z,77.95
2022-10-06T03:03:41.120Z,78.02
2022-10-06T03:04:42.561Z,77.74
2022-10-06T03:05:43.989Z,77.63
2022-10-06T03:06:45.492Z,77.73
2022-10-06T03:07:46.903Z,77.44
2022-10-06T03:08:52.361Z,77.41
2022-10-06T03:09:53.824Z,77.42
2022-10-06T03:11:06.626Z,77.53
2022-10-06T03:12:08.413Z,77.38
2022-10-06T03:13:09.852Z,77.29
2022-10-06T03:14:11.631Z,77.18
2022-10-06T03:15:13.511Z,76.95
2022-10-06T03:16:26.468Z,76.73
2022-10-06T03:17:28.101Z,76.89
2022-10-06T03:18:31.438Z,76.56
2022-10-06T03:19:33.592Z,75.87
2022-10-06T03:20:35.412Z,76.26
2022-10-06T03:21:40.482Z,76.16
2022-10-06T03:22:41.914Z,76.60
2022-10-06T03:23:44.582Z,76.30
2022-10-06T03:24:46.351Z,76.61
2022-10-06T03:25:56.494Z,76.76
2022-10-06T03:26:58.272Z,76.50
2022-10-06T03:28:00.776Z,76.49
2022-10-06T03:29:02.598Z,76.51
2022-10-06T03:30:04.984Z,76.46
2022-10-06T03:31:07.309Z,76.53
2022-10-06T03:32:08.829Z,76.76
2022-10-06T03:33:10.239Z,76.78
2022-10-06T03:34:13.800Z,76.99
2022-10-06T03:35:15.370Z,76.75
2022-10-06T03:36:19.128Z,76.90
2022-10-06T03:37:20.664Z,77.25
2022-10-06T03:38:22.105Z,76.97
2022-10-06T03:39:23.914Z,76.74
2022-10-06T03:40:25.333Z,76.71
2022-10-06T03:41:37.716Z,76.35
2022-10-06T03:42:39.231Z,76.95
2022-10-06T03:43:43.159Z,76.80
2022-10-06T03:44:44.985Z,77.10
2022-10-06T03:45:56.792Z,77.28
2022-10-06T03:46:58.256Z,77.28
2022-10-06T03:48:00.422Z,77.01
2022-10-06T03:49:02.230Z,77.11
2022-10-06T03:50:04.240Z,77.34
2022-10-06T03:51:08.612Z,77.43
2022-10-06T03:52:10.273Z,78.09
2022-10-06T03:53:11.759Z,78.01
2022-10-06T03:54:13.200Z,78.41
2022-10-06T03:55:14.680Z,78.94
2022-10-06T03:56:28.201Z,79.36
2022-10-06T03:57:29.621Z,79.04
2022-10-06T03:58:33.112Z,79.52
2022-10-06T03:59:35.081Z,79.95
2022-10-06T04:00:36.518Z,79.74
2022-10-06T04:01:40.599Z,80.36
2022-10-06T04:02:42.104Z,80.03
2022-10-06T04:03:44.537Z,80.30
2022-10-06T04:04:46.351Z,80.51
2022-10-06T04:05:58.706Z,80.80
2022-10-06T04:07:00.149Z,80.49
2022-10-06T04:08:01.568Z,80.15
2022-10-06T04:09:05.009Z,80.09
2022-10-06T04:10:07.645Z,80.34
2022-10-06T04:11:21.093Z,80.28
2022-10-06T04:12:22.650Z,80.21
2022-10-06T04:13:24.143Z,79.75
2022-10-06T04:14:25.971Z,79.83
2022-10-06T04:15:27.407Z,80.04
2022-10-06T04:16:32.598Z,79.75
2022-10-06T04:17:34.170Z,79.78
2022-10-06T04:18:35.664Z,79.87
2022-10-06T04:19:37.459Z,79.62
2022-10-06T04:20:39.243Z,79.93
2022-10-06T04:21:43.394Z,79.84
2022-10-06T04:22:45.044Z,79.11
2022-10-06T04:23:46.685Z,79.39
2022-10-06T04:24:48.586Z,79.29
2022-10-06T04:25:55.157Z,78.82
2022-10-06T04:27:17.981Z,78.84
2022-10-06T04:28:19.485Z,78.79
2022-10-06T04:29:21.634Z,78.58
2022-10-06T04:30:23.408Z,78.73
2022-10-06T04:31:27.552Z,79.02
2022-10-06T04:32:29.641Z,78.49
2022-10-06T04:33:34.163Z,78.38
2022-10-06T04:34:35.952Z,78.22
2022-10-06T04:35:37.413Z,77.93
2022-10-06T04:36:41.343Z,77.83
2022-10-06T04:37:43.153Z,77.92
2022-10-06T04:38:44.646Z,78.02
2022-10-06T04:39:46.513Z,77.78
2022-10-06T04:40:48.007Z,77.81
2022-10-06T04:41:49.470Z,77.76
2022-10-06T04:42:50.917Z,77.98
2022-10-06T04:43:53.135Z,78.13
2022-10-06T04:44:54.935Z,78.38
2022-10-06T04:45:58.464Z,78.20
2022-10-06T04:47:01.233Z,78.45
2022-10-06T04:48:02.731Z,78.33
2022-10-06T04:49:04.218Z,78.81
2022-10-06T04:50:06.474Z,79.05
2022-10-06T04:51:16.005Z,78.69
2022-10-06T04:52:17.448Z,78.89
2022-10-06T04:53:18.930Z,79.20
2022-10-06T04:54:20.425Z,79.29
2022-10-06T04:55:21.850Z,78.97
2022-10-06T04:56:26.340Z,79.17
2022-10-06T04:57:27.817Z,79.19
2022-10-06T04:58:33.764Z,79.01
2022-10-06T04:59:54.019Z,79.50
2022-10-06T05:00:55.563Z,79.16
2022-10-06T05:01:58.152Z,79.35
2022-10-06T05:02:59.593Z,79.11
2022-10-06T05:04:02.841Z,79.20
2022-10-06T05:05:06.159Z,79.06
2022-10-06T05:06:11.472Z,79.26
2022-10-06T05:07:12.907Z,79.18
2022-10-06T05:08:14.517Z,79.35
2022-10-06T05:09:16.099Z,79.08
2022-10-06T05:10:17.905Z,79.01
2022-10-06T05:11:25.686Z,79.15
2022-10-06T05:12:31.064Z,79.48
2022-10-06T05:13:32.966Z,78.91
2022-10-06T05:14:34.757Z,78.97
2022-10-06T05:15:36.232Z,78.90
2022-10-06T05:16:38.323Z,79.26
2022-10-06T05:17:39.968Z,79.19
2022-10-06T05:18:42.076Z,79.20
2022-10-06T05:19:43.827Z,79.26
2022-10-06T05:21:00.242Z,78.81
2022-10-06T05:22:03.728Z,79.62
2022-10-06T05:23:07.345Z,79.23
2022-10-06T05:24:09.038Z,79.00
2022-10-06T05:25:10.848Z,79.14
2022-10-06T05:26:14.272Z,79.00
2022-10-06T05:27:15.709Z,79.22
2022-10-06T05:28:17.179Z,79.09
2022-10-06T05:29:18.647Z,79.32
2022-10-06T05:30:20.132Z,79.71
2022-10-06T05:31:31.631Z,80.01
2022-10-06T05:32:36.061Z,79.96
2022-10-06T05:33:38.196Z,80.01
2022-10-06T05:34:39.958Z,80.02
2022-10-06T05:35:51.328Z,80.05
2022-10-06T05:36:52.838Z,80.21
2022-10-06T05:37:54.577Z,79.95
2022-10-06T05:38:57.425Z,79.91
2022-10-06T05:39:59.183Z,80.25
2022-10-06T05:41:13.938Z,80.07
2022-10-06T05:42:15.394Z,79.76
2022-10-06T05:43:18.147Z,79.97
2022-10-06T05:44:19.577Z,79.92
2022-10-06T05:45:21.468Z,79.53
2022-10-06T05:46:28.015Z,79.33
2022-10-06T05:47:29.440Z,79.15
2022-10-06T05:48:31.673Z,79.23
2022-10-06T05:49:33.851Z,79.02
2022-10-06T05:50:35.284Z,79.24
2022-10-06T05:51:38.843Z,79.18
2022-10-06T05:52:40.493Z,79.37
2022-10-06T05:53:42.236Z,79.10
2022-10-06T05:54:43.990Z,79.38
2022-10-06T05:55:45.451Z,79.34
2022-10-06T05:56:46.931Z,79.31
2022-10-06T05:57:48.368Z,79.72
2022-10-06T05:58:51.988Z,79.69
2022-10-06T05:59:53.740Z,79.90
2022-10-06T06:00:55.171Z,79.96
2022-10-06T06:01:57.070Z,81.01
2022-10-06T06:02:58.617Z,80.84
2022-10-06T06:04:12.200Z,81.16
2022-10-06T06:05:14.079Z,80.84
2022-10-06T06:06:16.859Z,80.70
2022-10-06T06:07:18.335Z,80.92
2022-10-06T06:08:19.842Z,80.96
2022-10-06T06:09:21.927Z,81.06
2022-10-06T06:10:23.674Z,80.77
2022-10-06T06:11:27.627Z,80.87
2022-10-06T06:12:29.072Z,80.75
2022-10-06T06:13:30.527Z,80.90
2022-10-06T06:14:50.911Z,81.25
2022-10-06T06:16:01.765Z,81.00
2022-10-06T06:17:03.304Z,81.12
2022-10-06T06:18:06.116Z,80.55
2022-10-06T06:19:10.998Z,80.78
2022-10-06T06:20:12.973Z,80.80
2022-10-06T06:21:14.623Z,80.89
2022-10-06T06:22:16.085Z,81.07
2022-10-06T06:23:17.522Z,81.24
2022-10-06T06:24:19.031Z,81.00
2022-10-06T06:25:20.561Z,80.72
2022-10-06T06:26:23.589Z,81.02
2022-10-06T06:27:26.173Z,80.94
2022-10-06T06:28:29.770Z,80.97
2022-10-06T06:29:31.412Z,80.83
2022-10-06T06:30:33.808Z,80.77
2022-10-06T06:31:38.035Z,80.92
2022-10-06T06:32:40.171Z,80.79
2022-10-06T06:33:42.128Z,80.96
2022-10-06T06:34:43.912Z,80.68
2022-10-06T06:35:45.338Z,80.58
2022-10-06T06:36:53.591Z,80.45
2022-10-06T06:37:55.259Z,80.75
2022-10-06T06:38:58.130Z,80.65
2022-10-06T06:39:59.922Z,80.42
2022-10-06T06:41:01.350Z,80.68
2022-10-06T06:42:05.099Z,80.42
2022-10-06T06:43:06.604Z,80.12
2022-10-06T06:44:11.169Z,79.82
2022-10-06T06:45:14.029Z,80.05
2022-10-06T06:46:16.433Z,79.78
2022-10-06T06:47:19.881Z,80.25
2022-10-06T06:48:25.180Z,80.17
2022-10-06T06:49:26.713Z,80.31
2022-10-06T06:50:29.121Z,80.53
2022-10-06T06:51:35.540Z,80.61
2022-10-06T06:52:37.398Z,80.77
2022-10-06T06:53:40.232Z,80.50
2022-10-06T06:54:42.049Z,80.31
2022-10-06T06:55:50.885Z,81.21
2022-10-06T06:56:52.439Z,81.07
2022-10-06T06:57:53.947Z,81.73
2022-10-06T06:58:55.386Z,82.12
2022-10-06T06:59:57.810Z,82.50
2022-10-06T07:01:06.489Z,82.95
2022-10-06T07:02:10.034Z,82.96
2022-10-06T07:03:24.106Z,83.34
2022-10-06T07:04:37.276Z,82.88
2022-10-06T07:05:40.311Z,83.46
2022-10-06T07:06:46.481Z,83.48
2022-10-06T07:07:48.110Z,83.54
2022-10-06T07:08:49.749Z,83.07
2022-10-06T07:09:51.283Z,83.08
2022-10-06T07:10:52.974Z,82.97
2022-10-06T07:11:55.182Z,82.54
2022-10-06T07:12:56.618Z,82.54
2022-10-06T07:14:03.543Z,83.37
2022-10-06T07:15:24.263Z,83.86
2022-10-06T07:16:44.297Z,83.51
2022-10-06T07:18:04.170Z,83.78
2022-10-06T07:19:25.341Z,83.96
2022-10-06T07:20:45.199Z,83.91
2022-10-06T07:22:12.057Z,83.70
2022-10-06T07:23:37.479Z,83.91
2022-10-06T07:24:58.004Z,83.72
2022-10-06T07:25:59.437Z,84.34
2022-10-06T07:27:01.966Z,84.70
2022-10-06T07:28:04.025Z,85.36
2022-10-06T07:29:05.525Z,85.44
2022-10-06T07:30:09.635Z,85.32
2022-10-06T07:31:11.138Z,85.33
2022-10-06T07:32:13.306Z,85.26
2022-10-06T07:33:15.806Z,85.13
2022-10-06T07:34:17.286Z,85.00
2022-10-06T07:35:20.392Z,85.43
2022-10-06T07:36:22.476Z,85.50
2022-10-06T07:37:24.153Z,85.50
2022-10-06T07:38:26.004Z,85.85
2022-10-06T07:39:27.490Z,85.14
2022-10-06T07:40:29.243Z,85.75
2022-10-06T07:41:31.606Z,85.45
2022-10-06T07:42:48.261Z,85.60
2022-10-06T07:43:50.579Z,85.20
2022-10-06T07:45:11.247Z,85.28
2022-10-06T07:46:14.444Z,85.40
2022-10-06T07:47:15.963Z,84.92
2022-10-06T07:48:19.884Z,84.92
2022-10-06T07:49:21.912Z,84.56
2022-10-06T07:50:23.974Z,84.63
2022-10-06T07:51:27.261Z,84.58
2022-10-06T07:52:28.926Z,84.50
2022-10-06T07:53:30.371Z,84.19
2022-10-06T07:54:31.881Z,84.07
2022-10-06T07:55:33.782Z,84.09
2022-10-06T07:56:35.234Z,83.80
2022-10-06T07:57:36.787Z,83.56
2022-10-06T07:58:38.835Z,83.13
2022-10-06T07:59:41.583Z,83.29
2022-10-06T08:00:44.324Z,83.00
2022-10-06T08:01:46.035Z,82.73
2022-10-06T08:02:47.656Z,82.76
2022-10-06T08:03:50.566Z,82.03
2022-10-06T08:04:52.526Z,82.09
2022-10-06T08:05:58.926Z,82.02
2022-10-06T08:07:00.478Z,81.86
2022-10-06T08:08:02.076Z,81.71
2022-10-06T08:09:03.921Z,81.70
2022-10-06T08:10:05.828Z,81.69
2022-10-06T08:11:08.549Z,81.54
2022-10-06T08:12:28.451Z,81.13
2022-10-06T08:13:32.229Z,80.93
2022-10-06T08:14:33.689Z,80.69
2022-10-06T08:15:35.677Z,80.71
2022-10-06T08:16:37.258Z,80.75
2022-10-06T08:17:38.827Z,80.47
2022-10-06T08:18:46.334Z,80.65
2022-10-06T08:19:48.786Z,79.76
2022-10-06T08:20:50.346Z,79.60
2022-10-06T08:21:52.142Z,79.40
2022-10-06T08:22:54.525Z,79.17
2022-10-06T08:23:57.712Z,79.10
2022-10-06T08:25:07.319Z,78.69
2022-10-06T08:26:13.776Z,78.50
2022-10-06T08:27:15.226Z,78.40
2022-10-06T08:28:16.824Z,77.34
2022-10-06T08:29:18.425Z,77.46
2022-10-06T08:30:20.313Z,76.61
2022-10-06T08:31:23.092Z,76.35
2022-10-06T08:32:24.644Z,76.55
2022-10-06T08:33:26.986Z,76.06
2022-10-06T08:34:28.625Z,76.09
2022-10-06T08:35:33.376Z,76.14
2022-10-06T08:36:34.944Z,76.34
2022-10-06T08:37:36.605Z,75.98
2022-10-06T08:38:40.630Z,76.03
2022-10-06T08:39:44.712Z,75.89
2022-10-06T08:40:47.098Z,75.49
2022-10-06T08:41:51.937Z,75.15
2022-10-06T08:42:58.655Z,75.00
2022-10-06T08:44:05.474Z,74.81
2022-10-06T08:45:13.781Z,74.70
2022-10-06T08:46:18.713Z,74.60
2022-10-06T08:47:24.439Z,74.64
2022-10-06T08:48:30.102Z,74.20
2022-10-06T08:49:37.252Z,73.91
2022-10-06T08:50:47.934Z,74.07
2022-10-06T08:52:10.088Z,73.74
2022-10-06T08:53:21.697Z,73.90
2022-10-06T08:54:48.377Z,73.60
2022-10-06T08:56:09.171Z,73.05
2022-10-06T08:57:24.966Z,73.01
2022-10-06T08:58:45.222Z,73.20
2022-10-06T08:59:49.609Z,73.87
2022-10-06T09:00:56.824Z,72.14
2022-10-06T09:01:58.560Z,71.48
2022-10-06T09:03:02.183Z,71.05
2022-10-06T09:04:07.730Z,70.75
2022-10-06T09:05:13.663Z,70.09
2022-10-06T09:06:33.071Z,69.31
2022-10-06T09:08:08.963Z,69.40
2022-10-06T09:09:37.729Z,69.13
2022-10-06T09:10:54.062Z,69.39
2022-10-06T09:12:19.785Z,70.45
2022-10-06T09:13:28.662Z,69.32
2022-10-06T09:14:37.903Z,69.10
2022-10-06T09:15:51.064Z,70.33
2022-10-06T09:17:00.840Z,68.97
2022-10-06T09:18:17.991Z,68.50
2022-10-06T09:19:33.486Z,68.68
2022-10-06T09:20:47.394Z,68.92
2022-10-06T09:21:53.336Z,68.46
2022-10-06T09:22:56.660Z,67.34
2022-10-06T09:24:05.043Z,67.91
2022-10-06T09:25:26.831Z,66.32
2022-10-06T09:26:30.496Z,65.28
2022-10-06T09:27:33.924Z,65.51
2022-10-06T09:28:35.808Z,66.73
2022-10-06T09:29:37.697Z,66.63
2022-10-06T09:30:41.782Z,65.99
2022-10-06T09:31:50.882Z,64.39
2022-10-06T09:32:59.096Z,64.36
2022-10-06T09:34:18.894Z,65.08
2022-10-06T09:35:22.804Z,66.50
2022-10-06T09:36:24.312Z,65.33
2022-10-06T09:37:26.974Z,66.14
2022-10-06T09:38:47.707Z,65.23
2022-10-06T09:39:51.269Z,66.16
2022-10-06T09:40:54.548Z,67.23
2022-10-06T09:41:56.528Z,66.09
2022-10-06T09:42:58.041Z,65.23
2022-10-06T09:44:05.077Z,66.00
2022-10-06T09:45:24.987Z,64.93
2022-10-06T09:46:41.863Z,65.14
2022-10-06T09:47:45.531Z,65.58
2022-10-06T09:48:47.328Z,65.71
2022-10-06T09:50:21.956Z,65.61
2022-10-06T09:51:24.747Z,65.02
2022-10-06T09:52:26.224Z,64.25
2022-10-06T09:53:27.753Z,64.25
2022-10-06T09:54:30.883Z,64.39
2022-10-06T09:55:34.713Z,64.59
2022-10-06T09:56:43.223Z,65.05
2022-10-06T09:57:50.177Z,64.85
2022-10-06T09:58:56.449Z,65.55
2022-10-06T10:00:00.391Z,65.37
2022-10-06T10:01:12.644Z,65.69
2022-10-06T10:02:30.480Z,64.76
2022-10-06T10:04:18.702Z,63.42
2022-10-06T10:05:21.244Z,63.91
2022-10-06T10:06:28.194Z,63.48
2022-10-06T10:07:31.344Z,63.66
2022-10-06T10:08:32.852Z,63.76
2022-10-06T10:09:34.401Z,63.95
2022-10-06T10:10:37.883Z,63.90
2022-10-06T10:11:58.155Z,64.32
2022-10-06T10:13:00.774Z,63.64
2022-10-06T10:14:02.203Z,63.30
2022-10-06T10:15:24.709Z,63.28
2022-10-06T10:16:28.600Z,63.67
2022-10-06T10:17:32.440Z,64.08
2022-10-06T10:18:35.480Z,64.24
2022-10-06T10:19:43.103Z,64.10
2022-10-06T10:20:56.046Z,63.71
2022-10-06T10:21:57.620Z,63.27
2022-10-06T10:23:02.749Z,63.28
2022-10-06T10:24:14.981Z,63.27
2022-10-06T10:25:16.360Z,63.86
2022-10-06T10:26:31.472Z,63.66
2022-10-06T10:27:37.165Z,63.31
2022-10-06T10:29:04.517Z,64.03
2022-10-06T10:30:10.402Z,63.87
2022-10-06T10:31:19.213Z,63.35
2022-10-06T10:32:40.257Z,63.28
2022-10-06T10:34:11.818Z,63.18
2022-10-06T10:35:37.268Z,63.40
2022-10-06T10:37:16.429Z,64.54
2022-10-06T10:38:23.224Z,62.78
2022-10-06T10:39:35.900Z,62.76
2022-10-06T10:41:04.706Z,63.52
2022-10-06T10:42:27.524Z,63.82
2022-10-06T10:43:33.779Z,64.48
2022-10-06T10:44:41.319Z,64.44
2022-10-06T10:45:50.908Z,63.68
2022-10-06T10:46:56.026Z,63.41
2022-10-06T10:47:59.917Z,63.13
2022-10-06T10:49:12.315Z,62.46
2022-10-06T10:50:28.232Z,63.21
2022-10-06T10:51:38.005Z,62.45
2022-10-06T10:52:42.852Z,62.45
2022-10-06T10:53:50.590Z,62.96
2022-10-06T10:55:01.034Z,62.30
2022-10-06T10:56:03.765Z,62.14
2022-10-06T10:57:14.136Z,61.04
2022-10-06T10:58:27.739Z,61.30
2022-10-06T10:59:52.077Z,60.60
2022-10-06T11:00:58.126Z,59.72
2022-10-06T11:02:05.017Z,59.15
2022-10-06T11:03:10.814Z,58.11
2022-10-06T11:04:13.851Z,56.36
2022-10-06T11:05:18.174Z,55.77
2022-10-06T11:06:38.506Z,55.40
2022-10-06T11:07:53.392Z,55.66
2022-10-06T11:09:09.219Z,55.93
2022-10-06T11:10:10.563Z,56.51
2022-10-06T11:11:25.116Z,57.44
2022-10-06T11:12:45.320Z,57.25
2022-10-06T11:13:54.175Z,57.36
2022-10-06T11:15:01.675Z,56.88
2022-10-06T11:16:43.294Z,56.93
2022-10-06T11:17:46.811Z,56.70
2022-10-06T11:19:08.584Z,56.69
2022-10-06T11:20:12.916Z,56.35
2022-10-06T11:21:24.326Z,55.96
2022-10-06T11:22:47.406Z,56.61
2022-10-06T11:24:15.568Z,57.27
2022-10-06T11:25:44.636Z,55.98
2022-10-06T11:26:55.513Z,56.58
2022-10-06T11:28:20.580Z,56.60
2022-10-06T11:29:34.349Z,56.15
2022-10-06T11:30:50.374Z,56.13
2022-10-06T11:32:10.613Z,56.63
2022-10-06T11:33:20.352Z,56.84
2022-10-06T11:34:21.807Z,57.42
2022-10-06T11:35:29.801Z,57.42
2022-10-06T11:36:47.046Z,57.21
2022-10-06T11:37:55.523Z,57.93
2022-10-06T11:39:06.835Z,57.20
2022-10-06T11:41:06.166Z,57.49
2022-10-06T11:43:46.529Z,56.65
2022-10-06T11:44:55.346Z,56.40
2022-10-06T11:46:31.793Z,56.08
2022-10-06T11:47:55.307Z,55.81
2022-10-06T11:49:36.923Z,54.72
2022-10-06T11:50:40.277Z,55.58
2022-10-06T11:51:42.053Z,56.42
2022-10-06T11:52:45.505Z,56.33
2022-10-06T11:53:47.461Z,54.32
2022-10-06T11:54:57.130Z,52.66
2022-10-06T11:56:34.993Z,52.14
2022-10-06T11:58:12.635Z,53.32
2022-10-06T11:59:25.829Z,51.66
2022-10-06T12:00:33.375Z,52.35
2022-10-06T12:01:35.334Z,50.82
2022-10-06T12:02:41.800Z,50.38
2022-10-06T12:04:10.499Z,52.27
2022-10-06T12:06:48.903Z,51.71
2022-10-06T12:07:56.213Z,51.54
2022-10-06T12:08:58.368Z,51.37
2022-10-06T12:10:28.496Z,51.93
2022-10-06T12:11:42.675Z,52.61
2022-10-06T12:13:01.803Z,53.20
2022-10-06T12:16:07.024Z,51.00
2022-10-06T12:18:04.343Z,51.91
2022-10-06T12:19:19.376Z,51.58
2022-10-06T12:20:23.682Z,51.75
2022-10-06T12:21:32.895Z,52.12
2022-10-06T12:22:47.241Z,50.18
2022-10-06T12:24:01.138Z,51.24
2022-10-06T12:25:32.613Z,51.77
2022-10-06T12:26:50.353Z,51.27
2022-10-06T12:28:40.630Z,50.36
2022-10-06T12:29:48.949Z,51.09
2022-10-06T12:31:15.780Z,51.19
2022-10-06T12:32:46.390Z,51.75
2022-10-06T12:33:48.818Z,50.98
2022-10-06T12:35:09.744Z,51.70
2022-10-06T12:36:16.890Z,51.81
2022-10-06T12:37:43.195Z,51.24
2022-10-06T12:39:05.209Z,50.04
2022-10-06T12:40:47.294Z,50.61
2022-10-06T12:41:58.485Z,50.57
2022-10-06T12:43:18.114Z,51.11
2022-10-06T12:44:25.703Z,51.32
2022-10-06T12:45:27.130Z,50.59
2022-10-06T12:46:36.745Z,50.29
2022-10-06T12:47:43.438Z,50.29
2022-10-06T12:49:02.687Z,51.06
2022-10-06T12:50:27.102Z,51.23
2022-10-06T12:51:35.088Z,50.73
2022-10-06T12:52:46.115Z,50.35
2022-10-06T12:53:53.404Z,48.64
2022-10-06T12:55:07.368Z,49.28
2022-10-06T12:56:33.074Z,49.07
2022-10-06T12:57:52.073Z,47.58
2022-10-06T12:58:54.183Z,46.57
2022-10-06T12:59:55.595Z,46.68
2022-10-06T13:01:09.481Z,46.50
2022-10-06T13:02:21.917Z,46.14
2022-10-06T13:03:25.031Z,46.69
2022-10-06T13:04:36.768Z,45.94
2022-10-06T13:05:38.422Z,46.09
2022-10-06T13:06:49.592Z,46.14
2022-10-06T13:08:04.847Z,45.85
2022-10-06T13:09:14.285Z,45.18
2022-10-06T13:10:15.677Z,44.14
2022-10-06T13:11:25.276Z,43.15
2022-10-06T13:12:36.573Z,43.14
2022-10-06T13:13:45.343Z,43.24
2022-10-06T13:14:48.210Z,43.58
2022-10-06T13:15:50.824Z,43.46
2022-10-06T13:16:52.573Z,44.35
2022-10-06T13:18:16.167Z,44.72
2022-10-06T13:19:28.207Z,45.07
2022-10-06T13:20:55.428Z,43.75
2022-10-06T13:21:57.799Z,42.76
2022-10-06T13:23:08.698Z,42.81
2022-10-06T13:24:20.527Z,42.51
2022-10-06T13:25:22.066Z,42.15
2022-10-06T13:26:28.583Z,43.70
2022-10-06T13:27:30.521Z,44.21
2022-10-06T13:28:43.672Z,43.63
2022-10-06T13:29:45.253Z,42.41
2022-10-06T13:30:58.454Z,43.65
2022-10-06T13:32:02.198Z,43.50
2022-10-06T13:33:03.688Z,43.32
2022-10-06T13:34:10.306Z,42.41
2022-10-06T13:35:12.620Z,41.97
2022-10-06T13:36:15.178Z,41.21
2022-10-06T13:37:16.797Z,41.65
2022-10-06T13:38:19.121Z,40.94
2022-10-06T13:39:22.976Z,40.74
2022-10-06T13:40:44.068Z,39.40
2022-10-06T13:41:54.342Z,38.04
2022-10-06T13:42:57.781Z,38.93
2022-10-06T13:44:05.916Z,39.24
2022-10-06T13:45:14.691Z,37.63
2022-10-06T13:46:21.043Z,38.62
2022-10-06T13:47:25.568Z,38.81
2022-10-06T13:48:28.446Z,38.93
2022-10-06T13:49:32.894Z,38.70
2022-10-06T13:50:36.329Z,38.58
2022-10-06T13:51:38.251Z,37.08
2022-10-06T13:52:48.585Z,36.52
2022-10-06T13:53:51.907Z,36.69
2022-10-06T13:54:56.425Z,35.02
2022-10-06T13:55:58.652Z,35.76
2022-10-06T13:57:00.198Z,36.62
2022-10-06T13:58:04.934Z,36.48
2022-10-06T13:59:31.000Z,35.99
2022-10-06T14:00:54.463Z,36.24
2022-10-06T14:01:58.701Z,35.45
2022-10-06T14:03:05.963Z,33.93
2022-10-06T14:04:18.378Z,32.90
2022-10-06T14:05:31.395Z,34.45
2022-10-06T14:06:33.198Z,34.98
2022-10-06T14:07:42.893Z,34.81
2022-10-06T14:08:54.153Z,33.70
2022-10-06T14:09:55.638Z,34.97
2022-10-06T14:11:03.139Z,35.26
2022-10-06T14:12:15.642Z,34.71
2022-10-06T14:13:24.507Z,34.56
2022-10-06T14:14:25.829Z,34.62
2022-10-06T14:15:31.258Z,34.61
2022-10-06T14:16:33.057Z,34.81
2022-10-06T14:17:34.560Z,34.73
2022-10-06T14:18:43.152Z,33.70
2022-10-06T14:19:45.371Z,33.71